Terminal Aerodrome Forecast
Issued by NWS

Home | Current Version | Previous Version | Text Only | Print | Product List | Glossary On
Versions: 1 2 3 4 5 6 7 8 9 10 11 12 13 14 15 16 17
000
FTUS46 KPDT 192300
TAFBDN
TAF
KBDN 192340Z 2000/2024 23012KT P6SM BKN050 BKN250
     FM200500 16006KT 6SM -RA BR BKN025 OVC035
     FM201800 17012KT P6SM VCSH SCT045 BKN070 OVC080=

USA.gov is the U.S. government's official web portal to all federal, state and local government web resources and services.